INFORMACIÓN METAR y TAF
METAR FOR LEAS
ADDS - METARS form results

(0514 UTC 29 July 2021)
Data provider http://aviationweather.gov/metar/data/
 
METAR text: LEAS 290500Z VRB02KT 9999 FEW022 BKN043 17/15 Q1016 NOSIG
Conditions at: LEAS (ASTURIAS/AVILES , ES) observed 0500 UTC 29 July 2021
Temperature: 17.0°C (63°F)
Dewpoint: 15.0°C (59°F) [RH = 88%]
Pressure (altimeter): 30.00 inches Hg (1016.0 mb)
Winds: variable direction winds at 2 MPH (2 knots; 1.0 m/s)
Visibility: 6 or more miles (10+ km)
Ceiling: 4300 feet AGL
Clouds: few clouds at 2200 feet AGL
broken clouds at 4300 feet AGL
Weather: no significant weather observed at this time

METAR text: LEAS 290430Z VRB02KT 9999 FEW022 17/15 Q1016 NOSIG
Conditions at: LEAS (ASTURIAS/AVILES , ES) observed 0430 UTC 29 July 2021
Temperature: 17.0°C (63°F)
Dewpoint: 15.0°C (59°F) [RH = 88%]
Pressure (altimeter): 30.00 inches Hg (1016.0 mb)
Winds: variable direction winds at 2 MPH (2 knots; 1.0 m/s)
Visibility: 6 or more miles (10+ km)
Ceiling: at least 12,000 feet AGL
Clouds: few clouds at 2200 feet AGL
Weather: no significant weather observed at this time

Forecast for: LEAS (ASTURIAS/AVILES , ES)
Text: TAF LEAS 290200Z 2903/3003 VRB06KT 9999 SCT015 SCT025 TX21/2915Z TN14/3003Z
Forecast period: 0300 UTC 29 July 2021 to 0300 UTC 30 July 2021
Forecast type: FROM: standard forecast or significant change
Winds: variable direction winds at 7 MPH (6 knots; 3.1 m/s)
Visibility: 6 or more miles (10+ km)
Ceiling: at least 12,000 feet AGL
Clouds: scattered clouds at 1500 feet AGL
scattered clouds at 2500 feet AGL
Weather: no significant weather forecast for this period
Text: PROB30
Forecast period: 0500 to 1000 UTC 29 July 2021
Forecast type: TEMPORARY: The following changes expected for less than half the time period
Visibility: missing
Ceiling: 1000 feet AGL
Clouds: broken clouds at 1000 feet AGL
Weather: no significant weather forecast for this period
Text: TEMPO 2905/2910 BKN010
Forecast period: 1000 to 1700 UTC 29 July 2021
Forecast type: TEMPORARY: The following changes expected for less than half the time period
Winds: from the NE (40 degrees) at 12 MPH (10 knots; 5.1 m/s)
Visibility: missing
Ceiling: unknown
Clouds: missing
Weather: no significant weather forecast for this period

 MAPA DE AEROPUERTO

 INFORMACIÓN DE PISTA
Pista 11 Longitud 7218 ft Ancho 148 ft
Elevación 399 ft Umbral desplazado 0 ft Rumbo de pista 109
Pista 29 Longitud 7218 ft Ancho 148 ft
Elevación 399 ft Umbral desplazado 0 ft Rumbo de pista 289

 FRECUANCIAS DEL AEROPUERTO
Tipo APP Nombre APP Frecuencia 118.15 MHZ
Tipo GND Nombre GND Frecuencia 121.7 MHZ
Tipo TWR Nombre TWR Frecuencia 118.15 MHZ

 RADIO AYUDAS DEL AEROPUERTO
Tipo NDB Nombre Asturias Frecuencia 325 KHZ
Tipo NDB Nombre Asturias Frecuencia 387 KHZ
Tipo VOR-DME Nombre Asturias Frecuencia 112400 KHZ




Normativa | Spanair Virtual © 2021 |